createdAt,value
2019-06-20T00:00:16.433Z,3.70
2019-06-20T00:02:52.912Z,3.52
2019-06-20T00:05:29.265Z,3.27
2019-06-20T00:08:05.537Z,3.27
2019-06-20T00:10:42.031Z,3.55
2019-06-20T00:13:19.065Z,3.22
2019-06-20T00:15:55.333Z,3.83
2019-06-20T00:18:32.111Z,3.00
2019-06-20T00:21:09.089Z,3.20
2019-06-20T00:23:45.489Z,3.00
2019-06-20T00:26:21.774Z,3.27
2019-06-20T00:28:58.316Z,3.60
2019-06-20T00:31:35.860Z,3.15
2019-06-20T00:34:12.032Z,3.72
2019-06-20T00:36:51.165Z,3.27
2019-06-20T00:39:25.848Z,3.20
2019-06-20T00:42:02.129Z,3.27
2019-06-20T00:44:38.711Z,3.75
2019-06-20T00:47:14.988Z,2.95
2019-06-20T00:49:50.769Z,4.10
2019-06-20T00:52:28.077Z,3.50
2019-06-20T00:55:06.470Z,3.62
2019-06-20T00:57:43.051Z,3.58
2019-06-20T01:00:20.280Z,3.50
2019-06-20T01:02:57.517Z,2.85
2019-06-20T01:05:34.076Z,3.62
2019-06-20T01:08:10.346Z,3.15
2019-06-20T01:10:47.712Z,3.37
2019-06-20T01:13:33.051Z,3.15
2019-06-20T01:16:01.678Z,3.35
2019-06-20T01:18:37.649Z,3.08
2019-06-20T01:21:14.199Z,3.27
2019-06-20T01:23:49.925Z,3.47
2019-06-20T01:26:26.333Z,3.10
2019-06-20T01:29:03.167Z,2.60
2019-06-20T01:31:39.828Z,3.37
2019-06-20T01:34:16.092Z,2.70
2019-06-20T01:36:52.518Z,3.00
2019-06-20T01:39:28.861Z,2.70
2019-06-20T01:42:05.241Z,3.47
2019-06-20T01:44:42.546Z,3.17
2019-06-20T01:47:18.401Z,2.70
2019-06-20T01:49:54.350Z,3.20
2019-06-20T01:52:31.030Z,2.77
2019-06-20T01:55:07.135Z,3.33
2019-06-20T01:57:42.914Z,3.85
2019-06-20T02:00:44.450Z,3.25
2019-06-20T02:03:21.696Z,3.08
2019-06-20T02:05:58.121Z,3.12
2019-06-20T02:08:34.703Z,3.33
2019-06-20T02:11:11.296Z,3.20
2019-06-20T02:13:47.645Z,3.00
2019-06-20T02:16:24.165Z,3.25
2019-06-20T02:19:00.065Z,3.17
2019-06-20T02:21:36.472Z,2.72
2019-06-20T02:24:12.580Z,2.70
2019-06-20T02:26:48.281Z,2.95
2019-06-20T02:29:24.605Z,3.08
2019-06-20T02:32:01.827Z,3.33
2019-06-20T02:34:37.750Z,2.42
2019-06-20T02:37:14.399Z,2.58
2019-06-20T02:39:51.222Z,2.45
2019-06-20T02:42:27.807Z,2.40
2019-06-20T02:45:04.880Z,2.47
2019-06-20T02:47:40.802Z,2.70
2019-06-20T02:50:17.989Z,2.30
2019-06-20T02:52:55.097Z,2.42
2019-06-20T02:55:33.445Z,2.30
2019-06-20T02:58:09.874Z,2.60
2019-06-20T03:00:56.045Z,2.50
2019-06-20T03:03:31.713Z,2.12
2019-06-20T03:06:08.593Z,2.40
2019-06-20T03:08:45.187Z,2.62
2019-06-20T03:11:21.721Z,2.45
2019-06-20T03:13:58.392Z,2.15
2019-06-20T03:16:34.348Z,2.60
2019-06-20T03:19:10.728Z,2.30
2019-06-20T03:21:47.096Z,2.70
2019-06-20T03:24:22.781Z,2.25
2019-06-20T03:26:59.139Z,2.12
2019-06-20T03:29:35.539Z,2.08
2019-06-20T03:32:12.137Z,2.08
2019-06-20T03:34:49.018Z,2.25
2019-06-20T03:37:24.861Z,1.90
2019-06-20T03:40:01.367Z,2.30
2019-06-20T03:42:37.796Z,2.08
2019-06-20T03:45:14.057Z,1.92
2019-06-20T03:47:50.461Z,2.10
2019-06-20T03:50:26.894Z,1.95
2019-06-20T03:53:03.995Z,1.87
2019-06-20T03:55:40.266Z,2.10
2019-06-20T03:58:16.823Z,2.00
2019-06-20T04:00:52.945Z,1.92
2019-06-20T04:03:29.186Z,2.08
2019-06-20T04:06:06.010Z,1.90
2019-06-20T04:08:42.286Z,1.60
2019-06-20T04:11:18.874Z,1.82
2019-06-20T04:13:54.787Z,1.87
2019-06-20T04:16:31.141Z,2.00
2019-06-20T04:19:08.063Z,1.77
2019-06-20T04:21:44.020Z,2.12
2019-06-20T04:24:20.352Z,1.70
2019-06-20T04:26:56.849Z,2.00
2019-06-20T04:29:35.863Z,1.70
2019-06-20T04:32:11.634Z,1.95
2019-06-20T04:34:48.917Z,2.08
2019-06-20T04:37:24.780Z,1.75
2019-06-20T04:40:02.145Z,1.82
2019-06-20T04:42:39.081Z,1.55
2019-06-20T04:45:34.917Z,2.10
2019-06-20T04:48:04.505Z,2.02
2019-06-20T04:50:40.237Z,1.70
2019-06-20T04:53:16.497Z,2.00
2019-06-20T04:55:53.558Z,1.80
2019-06-20T04:58:30.123Z,2.00
2019-06-20T05:01:06.614Z,1.72
2019-06-20T05:03:43.125Z,1.60
2019-06-20T05:06:19.566Z,1.85
2019-06-20T05:08:55.521Z,2.20
2019-06-20T05:11:32.302Z,1.70
2019-06-20T05:14:08.375Z,2.10
2019-06-20T05:16:44.727Z,2.10
2019-06-20T05:19:21.443Z,1.80
2019-06-20T05:21:57.859Z,2.72
2019-06-20T05:24:34.002Z,2.02
2019-06-20T05:27:09.768Z,1.95
2019-06-20T05:29:46.579Z,2.17
2019-06-20T05:32:24.149Z,2.27
2019-06-20T05:35:02.932Z,3.02
2019-06-20T05:37:38.916Z,2.67
2019-06-20T05:40:15.793Z,2.37
2019-06-20T05:42:52.801Z,2.00
2019-06-20T05:45:28.820Z,2.45
2019-06-20T05:48:05.411Z,2.30
2019-06-20T05:50:42.492Z,2.42
2019-06-20T05:53:18.537Z,2.70
2019-06-20T05:55:54.751Z,2.30
2019-06-20T05:58:31.880Z,2.27
2019-06-20T06:01:08.274Z,2.42
2019-06-20T06:03:44.745Z,2.65
2019-06-20T06:06:22.090Z,2.10
2019-06-20T06:08:58.677Z,2.30
2019-06-20T06:11:35.530Z,1.80
2019-06-20T06:14:12.425Z,1.80
2019-06-20T06:16:48.554Z,2.20
2019-06-20T06:19:24.946Z,1.82
2019-06-20T06:22:01.501Z,2.10
2019-06-20T06:24:38.498Z,2.25
2019-06-20T06:27:15.225Z,2.05
2019-06-20T06:29:51.192Z,1.92
2019-06-20T06:32:39.625Z,1.85
2019-06-20T06:35:06.168Z,2.08
2019-06-20T06:37:42.696Z,2.05
2019-06-20T06:40:19.797Z,2.12
2019-06-20T06:42:56.346Z,2.30
2019-06-20T06:45:33.832Z,1.50
2019-06-20T06:48:10.794Z,1.72
2019-06-20T06:50:46.578Z,2.15
2019-06-20T06:53:23.570Z,1.98
2019-06-20T06:56:00.009Z,2.02
2019-06-20T06:58:37.530Z,1.90
2019-06-20T07:01:13.398Z,2.02
2019-06-20T07:03:50.462Z,2.25
2019-06-20T07:06:26.895Z,1.82
2019-06-20T07:09:04.105Z,2.12
2019-06-20T07:11:40.019Z,1.95
2019-06-20T07:14:16.718Z,1.90
2019-06-20T07:17:00.230Z,1.95
2019-06-20T07:19:31.097Z,1.50
2019-06-20T07:22:07.674Z,1.90
2019-06-20T07:24:43.670Z,1.70
2019-06-20T07:27:19.961Z,1.55
2019-06-20T07:29:56.114Z,1.67
2019-06-20T07:32:32.649Z,1.90
2019-06-20T07:35:10.032Z,1.80
2019-06-20T07:37:46.702Z,1.47
2019-06-20T07:40:23.685Z,1.47
2019-06-20T07:42:59.525Z,1.50
2019-06-20T07:45:36.740Z,1.55
2019-06-20T07:48:13.149Z,1.65
2019-06-20T07:50:49.571Z,1.52
2019-06-20T07:53:25.872Z,1.60
2019-06-20T07:56:03.214Z,1.85
2019-06-20T07:58:40.767Z,2.22
2019-06-20T08:01:17.806Z,1.50
2019-06-20T08:03:54.212Z,2.00
2019-06-20T08:06:31.584Z,1.85
2019-06-20T08:09:09.369Z,1.55
2019-06-20T08:11:45.521Z,1.90
2019-06-20T08:14:21.668Z,1.62
2019-06-20T08:16:58.070Z,1.40
2019-06-20T08:22:19.901Z,2.00
2019-06-20T08:24:56.953Z,1.65
2019-06-20T08:27:51.483Z,1.98
2019-06-20T08:30:29.994Z,1.47
2019-06-20T08:33:11.513Z,1.80
2019-06-20T08:35:44.347Z,1.50
2019-06-20T08:38:21.525Z,1.52
2019-06-20T08:40:58.465Z,1.80
2019-06-20T08:43:35.583Z,2.00
2019-06-20T08:46:11.791Z,2.10
2019-06-20T08:48:48.009Z,4.22
2019-06-20T08:51:25.033Z,8.15
2019-06-20T08:54:01.265Z,7.60
2019-06-20T08:56:38.291Z,5.45
2019-06-20T08:59:24.285Z,5.65
2019-06-20T09:01:56.499Z,5.03
2019-06-20T09:04:32.133Z,4.45
2019-06-20T09:07:08.986Z,4.08
2019-06-20T09:09:46.004Z,4.78
2019-06-20T09:12:22.782Z,3.70
2019-06-20T09:14:59.236Z,3.45
2019-06-20T09:17:35.742Z,3.40
2019-06-20T09:20:12.517Z,3.58
2019-06-20T09:22:49.103Z,3.35
2019-06-20T09:25:26.379Z,3.90
2019-06-20T09:28:02.761Z,3.30
2019-06-20T09:30:40.482Z,2.95
2019-06-20T09:33:16.729Z,3.45
2019-06-20T09:35:53.888Z,3.72
2019-06-20T09:38:31.441Z,3.37
2019-06-20T09:41:08.030Z,3.37
2019-06-20T09:43:44.289Z,3.10
2019-06-20T09:46:20.449Z,3.47
2019-06-20T09:48:58.680Z,3.37
2019-06-20T09:51:35.196Z,3.02
2019-06-20T09:54:11.777Z,3.42
2019-06-20T09:56:50.284Z,3.02
2019-06-20T09:59:27.818Z,3.17
2019-06-20T10:02:04.731Z,3.62
2019-06-20T10:04:41.405Z,3.15
2019-06-20T10:07:18.661Z,2.85
2019-06-20T10:09:56.284Z,2.98
2019-06-20T10:12:32.498Z,2.90
2019-06-20T10:15:17.207Z,3.30
2019-06-20T10:17:54.505Z,2.95
2019-06-20T10:20:42.586Z,2.60
2019-06-20T10:23:19.292Z,2.85
2019-06-20T10:25:55.025Z,3.27
2019-06-20T10:28:32.126Z,5.70
2019-06-20T10:31:08.465Z,3.95
2019-06-20T10:33:46.846Z,2.95
2019-06-20T10:36:22.795Z,3.25
2019-06-20T10:38:59.417Z,2.87
2019-06-20T10:41:35.755Z,2.65
2019-06-20T10:44:12.185Z,3.60
2019-06-20T10:46:49.202Z,2.95
2019-06-20T10:49:27.005Z,2.77
2019-06-20T10:52:03.625Z,2.83
2019-06-20T10:54:41.637Z,3.22
2019-06-20T10:57:17.460Z,3.17
2019-06-20T10:59:54.596Z,2.98
2019-06-20T11:02:31.414Z,2.90
2019-06-20T11:05:08.336Z,3.30
2019-06-20T11:07:45.656Z,2.58
2019-06-20T11:10:22.498Z,2.83
2019-06-20T11:12:59.241Z,3.00
2019-06-20T11:15:35.603Z,2.70
2019-06-20T11:18:11.929Z,2.35
2019-06-20T11:20:48.821Z,2.45
2019-06-20T11:23:26.164Z,2.52
2019-06-20T11:26:03.011Z,2.65
2019-06-20T11:28:39.299Z,2.77
2019-06-20T11:31:16.352Z,2.60
2019-06-20T11:34:12.097Z,2.35
2019-06-20T11:36:49.167Z,2.45
2019-06-20T11:39:44.215Z,2.45
2019-06-20T11:42:20.517Z,2.35
2019-06-20T11:44:57.899Z,2.47
2019-06-20T11:47:35.487Z,2.47
2019-06-20T11:50:14.457Z,2.35
2019-06-20T11:52:54.227Z,2.92
2019-06-20T11:55:30.280Z,2.70
2019-06-20T11:58:07.002Z,2.22
2019-06-20T12:00:43.496Z,1.80
2019-06-20T12:03:20.474Z,2.50
2019-06-20T12:05:56.817Z,2.20
2019-06-20T12:08:32.515Z,2.02
2019-06-20T12:11:08.481Z,2.22
2019-06-20T12:13:46.503Z,2.60
2019-06-20T12:16:23.346Z,3.72
2019-06-20T12:19:00.082Z,4.47
2019-06-20T12:21:38.012Z,4.42
2019-06-20T12:24:17.356Z,4.40
2019-06-20T12:26:54.038Z,4.47
2019-06-20T12:29:30.228Z,5.53
2019-06-20T12:32:09.960Z,5.45
2019-06-20T12:34:46.611Z,6.45
2019-06-20T12:37:23.621Z,5.83
2019-06-20T12:40:00.778Z,7.12
2019-06-20T12:42:40.984Z,8.30
2019-06-20T12:45:17.872Z,7.25
2019-06-20T12:47:55.266Z,6.60
2019-06-20T12:50:32.144Z,6.25
2019-06-20T12:53:08.727Z,6.55
2019-06-20T12:55:45.742Z,5.85
2019-06-20T12:58:23.336Z,6.60
2019-06-20T13:00:59.857Z,6.15
2019-06-20T13:03:38.561Z,6.20
2019-06-20T13:06:14.553Z,5.78
2019-06-20T13:08:50.692Z,6.10
2019-06-20T13:11:27.390Z,5.65
2019-06-20T13:14:04.625Z,5.67
2019-06-20T13:16:42.571Z,5.42
2019-06-20T13:19:19.394Z,4.95
2019-06-20T13:21:56.825Z,5.85
2019-06-20T13:24:33.372Z,4.80
2019-06-20T13:27:09.594Z,5.40
2019-06-20T13:29:47.254Z,5.20
2019-06-20T13:32:24.010Z,4.55
2019-06-20T13:35:00.975Z,4.45
2019-06-20T13:37:38.240Z,4.83
2019-06-20T13:40:16.381Z,5.92
2019-06-20T13:42:54.681Z,4.25
2019-06-20T13:45:31.413Z,4.87
2019-06-20T13:48:07.356Z,4.75
2019-06-20T13:50:45.217Z,4.70
2019-06-20T13:53:23.402Z,4.87
2019-06-20T13:55:59.489Z,5.05
2019-06-20T13:58:35.597Z,4.30
2019-06-20T14:01:11.842Z,4.95
2019-06-20T14:03:48.703Z,5.25
2019-06-20T14:06:25.691Z,4.58
2019-06-20T14:09:02.565Z,4.28
2019-06-20T14:11:40.044Z,4.60
2019-06-20T14:14:16.826Z,4.90
2019-06-20T14:16:54.049Z,4.22
2019-06-20T14:19:30.314Z,4.85
2019-06-20T14:22:06.286Z,4.80
2019-06-20T14:24:45.021Z,4.00
2019-06-20T14:27:21.926Z,4.17
2019-06-20T14:29:58.965Z,4.50
2019-06-20T14:32:35.258Z,4.17
2019-06-20T14:35:13.593Z,4.12
2019-06-20T14:37:52.034Z,4.30
2019-06-20T14:40:29.462Z,4.33
2019-06-20T14:43:06.159Z,3.83
2019-06-20T14:45:43.853Z,4.05
2019-06-20T14:48:20.995Z,4.17
2019-06-20T14:50:57.712Z,4.30
2019-06-20T14:53:34.594Z,4.05
2019-06-20T14:56:12.691Z,3.80
2019-06-20T14:58:48.937Z,4.42
2019-06-20T15:01:27.456Z,3.65
2019-06-20T15:04:03.881Z,4.05
2019-06-20T15:06:40.469Z,4.15
2019-06-20T15:09:16.867Z,3.92
2019-06-20T15:11:55.140Z,3.50
2019-06-20T15:14:32.129Z,4.08
2019-06-20T15:17:08.333Z,4.08
2019-06-20T15:19:44.871Z,3.75
2019-06-20T15:22:22.988Z,4.00
2019-06-20T15:24:59.838Z,3.85
2019-06-20T15:27:36.824Z,3.85
2019-06-20T15:30:13.633Z,3.58
2019-06-20T15:33:04.310Z,3.55
2019-06-20T15:35:28.849Z,4.00
2019-06-20T15:38:05.948Z,3.92
2019-06-20T15:40:43.103Z,3.77
2019-06-20T15:43:19.642Z,3.83
2019-06-20T15:45:56.088Z,3.52
2019-06-20T15:48:32.241Z,4.10
2019-06-20T15:51:09.635Z,4.37
2019-06-20T15:53:46.035Z,4.10
2019-06-20T15:56:22.771Z,3.47
2019-06-20T15:58:59.607Z,3.60
2019-06-20T16:01:36.171Z,3.65
2019-06-20T16:04:11.862Z,3.60
2019-06-20T16:06:48.002Z,4.15
2019-06-20T16:09:23.885Z,4.15
2019-06-20T16:12:01.052Z,4.03
2019-06-20T16:14:37.647Z,3.37
2019-06-20T16:17:13.834Z,3.67
2019-06-20T16:19:51.036Z,3.10
2019-06-20T16:22:39.734Z,3.52
2019-06-20T16:25:16.038Z,3.85
2019-06-20T16:27:52.646Z,3.77
2019-06-20T16:30:28.567Z,3.77
2019-06-20T16:33:05.235Z,3.72
2019-06-20T16:35:41.885Z,3.40
2019-06-20T16:38:18.604Z,3.12
2019-06-20T16:40:55.401Z,3.65
2019-06-20T16:43:31.750Z,3.00
2019-06-20T16:46:08.474Z,3.62
2019-06-20T16:48:45.527Z,3.58
2019-06-20T16:51:21.617Z,3.22
2019-06-20T16:53:57.410Z,3.33
2019-06-20T16:56:33.890Z,3.40
2019-06-20T16:59:09.845Z,3.20
2019-06-20T17:01:46.530Z,3.35
2019-06-20T17:04:22.823Z,3.25
2019-06-20T17:06:59.225Z,3.95
2019-06-20T17:09:35.665Z,3.08
2019-06-20T17:12:12.279Z,3.95
2019-06-20T17:14:48.820Z,3.37
2019-06-20T17:17:24.606Z,3.37
2019-06-20T17:20:01.037Z,3.72
2019-06-20T17:22:37.626Z,2.85
2019-06-20T17:25:14.084Z,3.22
2019-06-20T17:28:21.049Z,3.37
2019-06-20T17:31:18.565Z,3.22
2019-06-20T17:33:57.825Z,3.42
2019-06-20T17:37:19.622Z,3.50
2019-06-20T17:40:21.317Z,2.92
2019-06-20T17:43:18.738Z,3.00
2019-06-20T17:52:36.311Z,3.62
2019-06-20T17:55:20.125Z,3.17
2019-06-20T17:58:18.338Z,3.15
2019-06-20T18:00:55.511Z,2.75
2019-06-20T18:07:20.349Z,2.83
2019-06-20T18:10:18.503Z,2.42
2019-06-20T18:13:19.425Z,2.92
2019-06-20T18:16:25.159Z,2.92
2019-06-20T18:19:19.012Z,2.52
2019-06-20T18:22:20.080Z,2.92
2019-06-20T18:25:15.930Z,2.52
2019-06-20T18:28:19.634Z,2.60
2019-06-20T18:30:56.010Z,2.50
2019-06-20T18:33:31.822Z,2.90
2019-06-20T18:36:08.348Z,3.00
2019-06-20T18:39:19.813Z,2.98
2019-06-20T18:42:20.944Z,2.85
2019-06-20T18:45:18.532Z,2.50
2019-06-20T18:48:18.981Z,2.52
2019-06-20T18:51:18.908Z,2.35
2019-06-20T18:53:55.329Z,2.90
2019-06-20T18:56:31.920Z,2.55
2019-06-20T18:59:07.968Z,2.58
2019-06-20T19:01:43.973Z,2.37
2019-06-20T19:04:19.854Z,2.30
2019-06-20T19:06:56.530Z,2.75
2019-06-20T19:09:33.677Z,2.52
2019-06-20T19:12:09.640Z,2.40
2019-06-20T19:14:47.088Z,2.60
2019-06-20T19:17:24.031Z,2.30
2019-06-20T19:20:00.369Z,2.50
2019-06-20T19:22:36.657Z,2.22
2019-06-20T19:25:14.391Z,2.12
2019-06-20T19:27:50.641Z,2.70
2019-06-20T19:30:39.237Z,2.30
2019-06-20T19:33:15.102Z,2.25
2019-06-20T19:35:52.858Z,2.62
2019-06-20T19:38:29.508Z,2.40
2019-06-20T19:41:05.967Z,2.20
2019-06-20T19:43:42.782Z,2.27
2019-06-20T19:46:18.768Z,2.22
2019-06-20T19:48:55.234Z,2.47
2019-06-20T19:51:32.013Z,2.10
2019-06-20T19:54:08.153Z,2.27
2019-06-20T19:56:45.088Z,2.22
2019-06-20T19:59:21.152Z,2.30
2019-06-20T20:01:58.054Z,2.20
2019-06-20T20:04:34.767Z,2.27
2019-06-20T20:07:12.945Z,2.47
2019-06-20T20:09:49.479Z,1.98
2019-06-20T20:12:25.665Z,2.17
2019-06-20T20:15:02.923Z,2.25
2019-06-20T20:17:39.291Z,2.10
2019-06-20T20:20:16.066Z,2.40
2019-06-20T20:22:52.479Z,2.05
2019-06-20T20:25:28.844Z,2.12
2019-06-20T20:28:07.300Z,2.00
2019-06-20T20:30:43.710Z,2.10
2019-06-20T20:33:19.594Z,1.80
2019-06-20T20:35:56.476Z,2.50
2019-06-20T20:38:34.425Z,2.22
2019-06-20T20:41:11.649Z,1.92
2019-06-20T20:43:49.191Z,1.75
2019-06-20T20:46:25.477Z,2.30
2019-06-20T20:49:02.519Z,2.17
2019-06-20T20:51:38.586Z,2.35
2019-06-20T20:54:15.212Z,2.22
2019-06-20T20:56:51.410Z,1.90
2019-06-20T20:59:28.355Z,2.20
2019-06-20T21:02:04.913Z,2.30
2019-06-20T21:04:41.587Z,2.00
2019-06-20T21:07:17.920Z,1.90
2019-06-20T21:09:54.474Z,2.22
2019-06-20T21:12:30.796Z,1.87
2019-06-20T21:15:07.098Z,1.80
2019-06-20T21:17:43.528Z,1.90
2019-06-20T21:20:20.201Z,2.05
2019-06-20T21:22:56.669Z,1.90
2019-06-20T21:25:33.565Z,1.72
2019-06-20T21:28:11.102Z,1.80
2019-06-20T21:30:47.766Z,1.77
2019-06-20T21:33:25.118Z,2.20
2019-06-20T21:36:08.551Z,2.10
2019-06-20T21:38:40.604Z,1.80
2019-06-20T21:41:16.964Z,1.90
2019-06-20T21:43:53.269Z,1.67
2019-06-20T21:46:31.113Z,1.98
2019-06-20T21:49:07.419Z,2.30
2019-06-20T21:51:44.695Z,1.90
2019-06-20T21:54:21.168Z,2.20
2019-06-20T21:56:57.033Z,1.92
2019-06-20T21:59:32.990Z,1.80
2019-06-20T22:02:10.186Z,1.85
2019-06-20T22:04:54.421Z,2.45
2019-06-20T22:07:25.778Z,2.15
2019-06-20T22:10:01.950Z,2.05
2019-06-20T22:12:42.206Z,2.02
2019-06-20T22:15:18.677Z,1.87
2019-06-20T22:17:55.013Z,2.37
2019-06-20T22:20:31.737Z,2.00
2019-06-20T22:23:07.725Z,1.85
2019-06-20T22:25:44.097Z,2.00
2019-06-20T22:28:20.058Z,1.80
2019-06-20T22:30:56.983Z,1.90
2019-06-20T22:33:33.552Z,2.20
2019-06-20T22:36:09.318Z,2.33
2019-06-20T22:38:46.113Z,2.05
2019-06-20T22:41:35.752Z,2.20
2019-06-20T22:44:11.801Z,2.10
2019-06-20T22:46:48.178Z,1.98
2019-06-20T22:49:24.736Z,2.50
2019-06-20T22:52:00.868Z,2.30
2019-06-20T22:54:37.396Z,2.10
2019-06-20T22:57:13.323Z,2.33
2019-06-20T22:59:49.848Z,2.20
2019-06-20T23:02:26.722Z,2.22
2019-06-20T23:05:04.134Z,2.77
2019-06-20T23:07:40.589Z,2.15
2019-06-20T23:10:17.141Z,2.22
2019-06-20T23:12:53.582Z,2.35
2019-06-20T23:15:29.900Z,2.35
2019-06-20T23:18:05.946Z,2.20
2019-06-20T23:20:42.509Z,2.15
2019-06-20T23:23:18.964Z,2.22
2019-06-20T23:25:57.809Z,2.10
2019-06-20T23:28:34.881Z,2.35
2019-06-20T23:31:11.779Z,2.50
2019-06-20T23:33:48.424Z,1.90
2019-06-20T23:36:24.527Z,2.20
2019-06-20T23:39:00.552Z,2.10
2019-06-20T23:41:36.643Z,2.00
2019-06-20T23:44:13.061Z,2.08
2019-06-20T23:46:48.972Z,2.25
2019-06-20T23:49:25.670Z,2.15
2019-06-20T23:52:11.501Z,2.00
2019-06-20T23:54:47.653Z,2.40
2019-06-20T23:57:24.841Z,1.77
